createdAt,value
2017-11-06T00:00:49.421Z,95.73
2017-11-06T00:03:16.968Z,95.86
2017-11-06T00:05:44.514Z,95.43
2017-11-06T00:08:12.094Z,95.75
2017-11-06T00:10:39.646Z,95.25
2017-11-06T00:13:07.521Z,95.10
2017-11-06T00:15:35.068Z,95.20
2017-11-06T00:18:02.610Z,95.88
2017-11-06T00:20:30.156Z,95.78
2017-11-06T00:22:57.721Z,95.56
2017-11-06T00:25:25.266Z,95.69
2017-11-06T00:27:52.853Z,96.01
2017-11-06T00:30:20.399Z,95.80
2017-11-06T00:32:47.990Z,95.75
2017-11-06T00:35:15.541Z,95.06
2017-11-06T00:37:43.080Z,94.97
2017-11-06T00:40:10.629Z,95.05
2017-11-06T00:42:38.596Z,94.82
2017-11-06T00:45:06.144Z,95.11
2017-11-06T00:47:33.728Z,94.98
2017-11-06T00:50:01.294Z,94.98
2017-11-06T00:52:28.881Z,94.79
2017-11-06T00:54:56.433Z,94.89
2017-11-06T00:57:24.092Z,94.58
2017-11-06T00:59:51.634Z,94.78
2017-11-06T01:02:19.228Z,94.66
2017-11-06T01:04:46.763Z,94.97
2017-11-06T01:07:14.314Z,94.56
2017-11-06T01:09:41.861Z,94.76
2017-11-06T01:12:10.336Z,94.88
2017-11-06T01:14:38.737Z,94.81
2017-11-06T01:17:07.232Z,94.35
2017-11-06T01:19:34.773Z,94.97
2017-11-06T01:22:02.350Z,94.97
2017-11-06T01:24:29.900Z,94.86
2017-11-06T01:26:57.505Z,94.23
2017-11-06T01:29:25.056Z,93.74
2017-11-06T01:31:52.610Z,94.15
2017-11-06T01:34:20.164Z,94.36
2017-11-06T01:36:47.834Z,94.49
2017-11-06T01:39:15.379Z,94.62
2017-11-06T01:41:42.957Z,94.56
2017-11-06T01:44:10.503Z,94.76
2017-11-06T01:46:38.941Z,94.35
2017-11-06T01:49:07.136Z,94.58
2017-11-06T01:51:34.691Z,94.70
2017-11-06T01:54:02.236Z,94.69
2017-11-06T01:56:29.783Z,94.29
2017-11-06T01:58:57.337Z,94.41
2017-11-06T02:01:24.944Z,94.09
2017-11-06T02:03:52.523Z,93.98
2017-11-06T02:06:20.066Z,94.51
2017-11-06T02:08:47.600Z,94.23
2017-11-06T02:11:15.149Z,94.70
2017-11-06T02:13:42.696Z,94.72
2017-11-06T02:16:10.293Z,94.42
2017-11-06T02:18:37.848Z,94.31
2017-11-06T02:21:05.460Z,93.92
2017-11-06T02:23:33.004Z,94.33
2017-11-06T02:26:00.550Z,94.70
2017-11-06T02:28:28.117Z,94.71
2017-11-06T02:30:55.653Z,94.90
2017-11-06T02:33:23.205Z,93.88
2017-11-06T02:35:50.749Z,94.40
2017-11-06T02:38:18.294Z,94.50
2017-11-06T02:40:45.833Z,93.89
2017-11-06T02:43:13.400Z,94.01
2017-11-06T02:45:40.944Z,94.06
2017-11-06T02:48:08.485Z,93.89
2017-11-06T02:50:36.064Z,94.40
2017-11-06T02:53:03.864Z,94.33
2017-11-06T02:55:31.419Z,94.41
2017-11-06T02:57:58.960Z,94.01
2017-11-06T03:00:43.430Z,93.80
2017-11-06T03:03:10.977Z,94.16
2017-11-06T03:05:39.231Z,93.67
2017-11-06T03:08:13.585Z,93.57
2017-11-06T03:10:41.122Z,93.75
2017-11-06T03:13:08.657Z,93.04
2017-11-06T03:15:36.214Z,93.52
2017-11-06T03:18:04.537Z,94.04
2017-11-06T03:20:33.093Z,93.89
2017-11-06T03:23:00.645Z,94.30
2017-11-06T03:25:28.242Z,94.23
2017-11-06T03:27:56.586Z,93.41
2017-11-06T03:30:24.125Z,93.88
2017-11-06T03:32:51.715Z,93.30
2017-11-06T03:35:19.253Z,93.34
2017-11-06T03:37:46.785Z,93.41
2017-11-06T03:40:15.097Z,93.51
2017-11-06T03:42:42.625Z,94.12
2017-11-06T03:45:10.281Z,94.17
2017-11-06T03:47:38.629Z,94.50
2017-11-06T03:50:07.157Z,94.13
2017-11-06T03:52:34.697Z,94.39
2017-11-06T03:55:02.237Z,94.23
2017-11-06T03:57:29.826Z,93.81
2017-11-06T03:59:57.378Z,93.61
2017-11-06T04:02:25.752Z,93.94
2017-11-06T04:04:53.292Z,94.18
2017-11-06T04:07:20.888Z,93.89
2017-11-06T04:09:48.493Z,93.50
2017-11-06T04:12:16.028Z,93.65
2017-11-06T04:14:43.576Z,94.05
2017-11-06T04:17:11.147Z,93.85
2017-11-06T04:19:38.725Z,93.91
2017-11-06T04:22:06.338Z,94.06
2017-11-06T04:24:33.886Z,94.36
2017-11-06T04:27:01.438Z,93.48
2017-11-06T04:29:29.024Z,93.66
2017-11-06T04:31:56.574Z,94.21
2017-11-06T04:34:24.152Z,93.99
2017-11-06T04:36:51.693Z,93.52
2017-11-06T04:39:19.268Z,93.93
2017-11-06T04:41:47.733Z,93.79
2017-11-06T04:44:15.277Z,93.85
2017-11-06T04:46:42.836Z,94.25
2017-11-06T04:49:10.390Z,94.76
2017-11-06T04:51:38.999Z,94.35
2017-11-06T04:54:07.236Z,93.96
2017-11-06T04:56:34.817Z,93.67
2017-11-06T04:59:02.366Z,93.48
2017-11-06T05:01:29.945Z,93.40
2017-11-06T05:03:57.493Z,93.45
2017-11-06T05:06:25.041Z,93.96
2017-11-06T05:08:52.597Z,93.74
2017-11-06T05:11:20.154Z,93.40
2017-11-06T05:13:47.693Z,93.91
2017-11-06T05:16:15.253Z,94.30
2017-11-06T05:18:42.835Z,94.05
2017-11-06T05:21:10.391Z,93.89
2017-11-06T05:23:37.933Z,93.71
2017-11-06T05:26:05.492Z,93.75
2017-11-06T05:28:33.029Z,93.90
2017-11-06T05:31:00.562Z,94.02
2017-11-06T05:33:28.118Z,94.21
2017-11-06T05:35:55.652Z,93.62
2017-11-06T05:38:23.200Z,93.82
2017-11-06T05:40:50.745Z,94.39
2017-11-06T05:43:18.281Z,93.69
2017-11-06T05:45:45.832Z,94.07
2017-11-06T05:48:13.414Z,93.85
2017-11-06T05:50:40.952Z,93.23
2017-11-06T05:53:08.496Z,92.98
2017-11-06T05:55:36.671Z,93.36
2017-11-06T05:58:04.208Z,93.61
2017-11-06T06:00:32.468Z,93.17
2017-11-06T06:03:00.798Z,93.28
2017-11-06T06:05:28.341Z,93.38
2017-11-06T06:07:55.926Z,93.12
2017-11-06T06:10:23.478Z,93.13
2017-11-06T06:12:51.824Z,93.00
2017-11-06T06:15:20.133Z,93.54
2017-11-06T06:17:48.464Z,92.98
2017-11-06T06:20:17.098Z,93.23
2017-11-06T06:22:44.648Z,93.22
2017-11-06T06:25:12.191Z,93.87
2017-11-06T06:27:39.735Z,93.27
2017-11-06T06:30:07.273Z,93.14
2017-11-06T06:32:34.805Z,92.95
2017-11-06T06:35:03.299Z,92.34
2017-11-06T06:37:30.836Z,92.69
2017-11-06T06:39:58.419Z,93.20
2017-11-06T06:42:25.951Z,92.44
2017-11-06T06:44:53.489Z,92.62
2017-11-06T06:47:21.022Z,93.14
2017-11-06T06:49:48.571Z,92.74
2017-11-06T06:52:16.105Z,92.91
2017-11-06T06:54:43.641Z,92.28
2017-11-06T06:57:11.216Z,92.99
2017-11-06T06:59:38.762Z,92.66
2017-11-06T07:02:06.295Z,92.70
2017-11-06T07:04:34.724Z,92.76
2017-11-06T07:07:03.032Z,92.12
2017-11-06T07:09:30.577Z,92.46
2017-11-06T07:11:58.140Z,92.06
2017-11-06T07:14:26.498Z,92.61
2017-11-06T07:16:54.063Z,93.00
2017-11-06T07:19:21.614Z,92.77
2017-11-06T07:21:49.194Z,93.04
2017-11-06T07:24:16.734Z,92.59
2017-11-06T07:26:45.041Z,92.62
2017-11-06T07:29:12.564Z,92.75
2017-11-06T07:31:40.090Z,92.07
2017-11-06T07:34:08.417Z,92.22
2017-11-06T07:36:36.785Z,92.66
2017-11-06T07:39:05.325Z,93.62
2017-11-06T07:41:32.872Z,92.48
2017-11-06T07:44:01.359Z,93.04
2017-11-06T07:46:28.890Z,93.47
2017-11-06T07:48:57.345Z,92.54
2017-11-06T07:51:25.787Z,92.29
2017-11-06T07:53:54.107Z,92.27
2017-11-06T07:56:22.345Z,92.76
2017-11-06T07:58:50.635Z,92.11
2017-11-06T08:01:18.170Z,91.01
2017-11-06T08:03:45.759Z,91.08
2017-11-06T08:06:13.299Z,90.20
2017-11-06T08:08:40.876Z,90.44
2017-11-06T08:11:08.657Z,91.07
2017-11-06T08:13:36.967Z,91.50
2017-11-06T08:16:05.284Z,91.50
2017-11-06T08:18:32.868Z,90.28
2017-11-06T08:21:01.302Z,89.06
2017-11-06T08:23:28.875Z,90.05
2017-11-06T08:25:56.411Z,89.41
2017-11-06T08:28:24.777Z,87.86
2017-11-06T08:30:52.311Z,88.87
2017-11-06T08:33:19.847Z,88.83
2017-11-06T08:35:47.393Z,89.13
2017-11-06T08:38:14.937Z,87.78
2017-11-06T08:40:42.496Z,88.21
2017-11-06T08:43:10.028Z,88.33
2017-11-06T08:45:38.240Z,87.96
2017-11-06T08:48:05.770Z,88.80
2017-11-06T08:50:33.304Z,89.08
2017-11-06T08:53:00.888Z,89.31
2017-11-06T08:55:29.271Z,87.85
2017-11-06T08:57:56.801Z,89.22
2017-11-06T09:00:24.337Z,87.72
2017-11-06T09:02:52.741Z,87.81
2017-11-06T09:05:20.277Z,87.99
2017-11-06T09:07:47.817Z,87.47
2017-11-06T09:10:17.283Z,87.03
2017-11-06T09:12:44.841Z,88.34
2017-11-06T09:15:13.279Z,87.63
2017-11-06T09:17:40.814Z,87.54
2017-11-06T09:20:08.612Z,87.74
2017-11-06T09:22:36.320Z,87.27
2017-11-06T09:25:04.916Z,88.35
2017-11-06T09:27:33.290Z,87.55
2017-11-06T09:30:00.839Z,87.51
2017-11-06T09:32:28.403Z,87.16
2017-11-06T09:34:55.934Z,87.77
2017-11-06T09:37:23.508Z,86.01
2017-11-06T09:39:51.037Z,86.46
2017-11-06T09:42:18.773Z,86.31
2017-11-06T09:44:46.296Z,86.21
2017-11-06T09:47:13.826Z,85.80
2017-11-06T09:49:41.415Z,86.45
2017-11-06T09:52:09.731Z,86.87
2017-11-06T09:54:38.630Z,86.95
2017-11-06T09:57:07.576Z,87.22
2017-11-06T09:59:37.216Z,87.00
2017-11-06T10:02:04.749Z,86.93
2017-11-06T10:04:32.282Z,85.97
2017-11-06T10:06:59.824Z,86.01
2017-11-06T10:09:27.442Z,85.31
2017-11-06T10:11:54.982Z,85.99
2017-11-06T10:14:22.513Z,85.96
2017-11-06T10:16:50.053Z,85.79
2017-11-06T10:19:17.579Z,85.77
2017-11-06T10:21:45.116Z,85.73
2017-11-06T10:24:12.652Z,85.47
2017-11-06T10:26:40.188Z,86.06
2017-11-06T10:29:07.715Z,87.64
2017-11-06T10:31:35.264Z,86.21
2017-11-06T10:34:02.796Z,84.95
2017-11-06T10:36:30.384Z,85.71
2017-11-06T10:38:57.921Z,85.37
2017-11-06T10:41:25.463Z,85.80
2017-11-06T10:43:53.014Z,85.40
2017-11-06T10:46:20.562Z,84.90
2017-11-06T10:48:48.102Z,84.59
2017-11-06T10:51:15.642Z,85.93
2017-11-06T10:53:43.183Z,84.89
2017-11-06T10:56:10.722Z,85.40
2017-11-06T10:58:38.355Z,85.77
2017-11-06T11:01:05.887Z,85.55
2017-11-06T11:03:33.431Z,87.03
2017-11-06T11:06:00.967Z,87.91
2017-11-06T11:08:28.499Z,87.91
2017-11-06T11:10:56.033Z,87.72
2017-11-06T11:13:23.567Z,88.48
2017-11-06T11:15:51.886Z,89.04
2017-11-06T11:18:19.441Z,88.50
2017-11-06T11:20:46.972Z,86.53
2017-11-06T11:23:14.517Z,86.85
2017-11-06T11:25:42.049Z,85.83
2017-11-06T11:28:09.580Z,86.00
2017-11-06T11:30:38.237Z,86.33
2017-11-06T11:33:05.766Z,86.01
2017-11-06T11:35:33.304Z,85.07
2017-11-06T11:38:00.840Z,84.38
2017-11-06T11:40:28.375Z,84.05
2017-11-06T11:42:55.906Z,84.41
2017-11-06T11:45:27.126Z,84.44
2017-11-06T11:47:54.764Z,85.59
2017-11-06T11:50:22.293Z,86.32
2017-11-06T11:52:49.880Z,84.71
2017-11-06T11:55:17.434Z,86.04
2017-11-06T11:57:44.975Z,85.18
2017-11-06T12:00:12.510Z,85.40
2017-11-06T12:02:40.040Z,86.43
2017-11-06T12:05:07.605Z,83.45
2017-11-06T12:07:35.947Z,83.64
2017-11-06T12:10:03.479Z,84.20
2017-11-06T12:12:31.014Z,83.53
2017-11-06T12:14:58.549Z,82.57
2017-11-06T12:17:26.080Z,82.14
2017-11-06T12:19:53.611Z,83.73
2017-11-06T12:22:21.152Z,81.03
2017-11-06T12:24:48.689Z,80.27
2017-11-06T12:27:16.271Z,80.60
2017-11-06T12:29:43.811Z,80.76
2017-11-06T12:32:11.339Z,80.05
2017-11-06T12:34:38.873Z,79.98
2017-11-06T12:37:06.399Z,79.97
2017-11-06T12:39:33.937Z,79.37
2017-11-06T12:42:01.465Z,77.78
2017-11-06T12:44:28.996Z,78.58
2017-11-06T12:46:57.251Z,78.32
2017-11-06T12:49:24.781Z,77.40
2017-11-06T12:51:52.325Z,77.57
2017-11-06T12:54:19.911Z,78.00
2017-11-06T12:56:47.456Z,77.07
2017-11-06T12:59:15.000Z,76.00
2017-11-06T13:01:42.541Z,76.74
2017-11-06T13:04:10.079Z,77.79
2017-11-06T13:06:37.615Z,76.28
2017-11-06T13:09:06.219Z,76.58
2017-11-06T13:11:33.759Z,77.10
2017-11-06T13:14:01.322Z,76.98
2017-11-06T13:16:28.852Z,76.83
2017-11-06T13:18:56.400Z,78.33
2017-11-06T13:21:23.937Z,78.28
2017-11-06T13:23:52.663Z,77.68
2017-11-06T13:26:20.191Z,77.47
2017-11-06T13:28:47.732Z,79.04
2017-11-06T13:31:15.263Z,77.74
2017-11-06T13:33:42.792Z,77.22
2017-11-06T13:36:10.315Z,76.82
2017-11-06T13:38:37.842Z,78.17
2017-11-06T13:41:05.379Z,78.03
2017-11-06T13:43:32.921Z,78.25
2017-11-06T13:46:00.457Z,78.56
2017-11-06T13:48:27.991Z,78.80
2017-11-06T13:50:55.520Z,79.30
2017-11-06T13:53:23.048Z,77.70
2017-11-06T13:55:50.589Z,77.50
2017-11-06T13:58:18.129Z,77.39
2017-11-06T14:00:46.553Z,78.53
2017-11-06T14:03:14.091Z,77.93
2017-11-06T14:05:41.625Z,78.89
2017-11-06T14:08:09.158Z,78.49
2017-11-06T14:10:37.530Z,78.55
2017-11-06T14:13:05.970Z,77.31
2017-11-06T14:15:33.496Z,78.25
2017-11-06T14:18:01.031Z,78.58
2017-11-06T14:20:29.497Z,78.91
2017-11-06T14:22:57.026Z,78.92
2017-11-06T14:25:24.551Z,78.08
2017-11-06T14:27:52.870Z,78.58
2017-11-06T14:30:21.226Z,78.94
2017-11-06T14:32:48.754Z,79.40
2017-11-06T14:35:16.277Z,79.38
2017-11-06T14:37:43.810Z,80.10
2017-11-06T14:40:11.340Z,80.33
2017-11-06T14:42:38.876Z,81.05
2017-11-06T14:45:06.423Z,82.54
2017-11-06T14:47:33.977Z,81.90
2017-11-06T14:50:01.516Z,82.83
2017-11-06T14:52:30.425Z,83.13
2017-11-06T14:54:57.952Z,83.12
2017-11-06T14:57:25.484Z,83.96
2017-11-06T14:59:53.009Z,83.79
2017-11-06T15:02:20.549Z,84.65
2017-11-06T15:04:48.131Z,85.27
2017-11-06T15:07:16.477Z,85.57
2017-11-06T15:09:44.015Z,85.79
2017-11-06T15:12:11.544Z,85.40
2017-11-06T15:14:39.858Z,85.80
2017-11-06T15:17:07.386Z,86.61
2017-11-06T15:19:34.915Z,87.57
2017-11-06T15:22:02.481Z,87.43
2017-11-06T15:24:30.925Z,87.56
2017-11-06T15:26:59.480Z,87.83
2017-11-06T15:29:27.585Z,88.91
2017-11-06T15:31:55.120Z,89.21
2017-11-06T15:34:22.680Z,89.25
2017-11-06T15:36:50.992Z,89.88
2017-11-06T15:39:19.229Z,89.90
2017-11-06T15:41:46.768Z,89.86
2017-11-06T15:44:15.222Z,90.55
2017-11-06T15:46:43.074Z,91.37
2017-11-06T15:49:10.599Z,91.63
2017-11-06T15:51:38.134Z,91.96
2017-11-06T15:54:06.480Z,91.67
2017-11-06T15:56:34.793Z,91.76
2017-11-06T15:59:02.333Z,91.67
2017-11-06T16:01:29.873Z,91.76
2017-11-06T16:03:57.405Z,92.64
2017-11-06T16:06:24.938Z,93.59
2017-11-06T16:08:52.577Z,93.96
2017-11-06T16:11:20.133Z,93.96
2017-11-06T16:13:47.669Z,93.85
2017-11-06T16:16:15.206Z,93.99
2017-11-06T16:18:42.744Z,94.13
2017-11-06T16:21:10.282Z,94.84
2017-11-06T16:23:37.862Z,94.68
2017-11-06T16:26:05.403Z,94.49
2017-11-06T16:28:33.204Z,94.58
2017-11-06T16:31:01.648Z,94.32
2017-11-06T16:33:29.221Z,94.33
2017-11-06T16:35:56.788Z,94.21
2017-11-06T16:38:24.789Z,94.28
2017-11-06T16:40:52.328Z,94.42
2017-11-06T16:43:21.791Z,94.53
2017-11-06T16:45:49.334Z,94.55
2017-11-06T16:48:16.897Z,95.09
2017-11-06T16:50:44.434Z,95.37
2017-11-06T16:53:11.976Z,95.85
2017-11-06T16:55:39.513Z,95.94
2017-11-06T16:58:07.042Z,96.06
2017-11-06T17:00:34.576Z,96.07
2017-11-06T17:03:02.776Z,96.08
2017-11-06T17:05:30.318Z,96.00
2017-11-06T17:07:57.900Z,96.17
2017-11-06T17:10:25.445Z,96.35
2017-11-06T17:12:52.983Z,96.32
2017-11-06T17:15:20.532Z,96.21
2017-11-06T17:17:48.071Z,96.09
2017-11-06T17:20:17.380Z,96.07
2017-11-06T17:22:44.917Z,96.81
2017-11-06T17:25:12.456Z,96.41
2017-11-06T17:27:40.012Z,96.27
2017-11-06T17:30:07.581Z,95.48
2017-11-06T17:32:35.116Z,95.92
2017-11-06T17:35:02.657Z,95.94
2017-11-06T17:37:30.197Z,95.95
2017-11-06T17:39:57.820Z,95.20
2017-11-06T17:42:25.359Z,94.76
2017-11-06T17:44:52.903Z,95.66
2017-11-06T17:47:20.545Z,96.01
2017-11-06T17:49:48.077Z,96.48
2017-11-06T17:52:15.615Z,95.97
2017-11-06T17:54:43.889Z,96.11
2017-11-06T17:57:12.281Z,96.37
2017-11-06T17:59:39.820Z,95.93
2017-11-06T18:02:07.365Z,95.48
2017-11-06T18:04:34.933Z,95.40
2017-11-06T18:07:02.486Z,95.38
2017-11-06T18:09:30.048Z,96.52
2017-11-06T18:11:57.600Z,96.80
2017-11-06T18:14:26.050Z,97.11
2017-11-06T18:16:53.597Z,96.87
2017-11-06T18:19:21.148Z,96.96
2017-11-06T18:21:48.694Z,97.25
2017-11-06T18:24:16.292Z,97.37
2017-11-06T18:26:43.848Z,97.20
2017-11-06T18:29:12.635Z,97.55
2017-11-06T18:31:40.187Z,97.49
2017-11-06T18:34:07.734Z,97.60
2017-11-06T18:36:35.305Z,97.49
2017-11-06T18:39:02.865Z,97.46
2017-11-06T18:41:30.414Z,97.22
2017-11-06T18:43:58.022Z,97.24
2017-11-06T18:46:25.558Z,97.47
2017-11-06T18:48:53.106Z,97.26
2017-11-06T18:51:20.672Z,97.01
2017-11-06T18:53:48.282Z,96.87
2017-11-06T18:56:15.844Z,97.16
2017-11-06T18:58:43.656Z,97.51
2017-11-06T19:01:11.233Z,97.27
2017-11-06T19:03:38.916Z,97.95
2017-11-06T19:06:06.444Z,97.89
2017-11-06T19:08:33.985Z,97.53
2017-11-06T19:11:01.520Z,97.69
2017-11-06T19:13:29.121Z,96.77
2017-11-06T19:15:56.655Z,96.67
2017-11-06T19:18:24.236Z,97.27
2017-11-06T19:20:51.793Z,97.00
2017-11-06T19:23:23.353Z,96.59
2017-11-06T19:25:50.935Z,96.29
2017-11-06T19:28:18.517Z,97.02
2017-11-06T19:30:46.053Z,97.53
2017-11-06T19:33:13.580Z,97.81
2017-11-06T19:35:41.705Z,97.73
2017-11-06T19:38:10.421Z,97.55
2017-11-06T19:40:37.963Z,97.68
2017-11-06T19:43:05.576Z,100.00
2017-11-06T19:45:33.122Z,96.62
2017-11-06T19:48:00.657Z,96.19
2017-11-06T19:50:28.200Z,96.95
2017-11-06T19:52:55.744Z,97.12
2017-11-06T19:55:23.284Z,97.53
2017-11-06T19:57:50.853Z,100.00
2017-11-06T20:00:21.225Z,96.89
2017-11-06T20:02:49.575Z,96.88
2017-11-06T20:05:17.113Z,97.36
2017-11-06T20:07:44.646Z,97.33
2017-11-06T20:10:12.187Z,97.51
2017-11-06T20:12:41.102Z,97.69
2017-11-06T20:15:12.161Z,96.20
2017-11-06T20:17:40.049Z,97.20
2017-11-06T20:20:07.605Z,97.36
2017-11-06T20:22:35.687Z,97.77
2017-11-06T20:25:03.322Z,97.79
2017-11-06T20:27:31.166Z,98.43
2017-11-06T20:29:58.717Z,98.34
2017-11-06T20:32:26.269Z,98.22
2017-11-06T20:34:53.856Z,98.33
2017-11-06T20:37:21.424Z,98.20
2017-11-06T20:39:49.820Z,97.56
2017-11-06T20:42:17.371Z,96.78
2017-11-06T20:44:44.918Z,96.56
2017-11-06T20:47:12.883Z,96.43
2017-11-06T20:49:40.549Z,96.84
2017-11-06T20:52:08.113Z,96.84
2017-11-06T20:54:36.577Z,97.12
2017-11-06T20:57:04.179Z,96.58
2017-11-06T20:59:31.712Z,97.38
2017-11-06T21:01:59.284Z,96.90
2017-11-06T21:04:26.901Z,97.37
2017-11-06T21:06:55.464Z,97.54
2017-11-06T21:09:23.860Z,97.86
2017-11-06T21:11:51.397Z,97.81
2017-11-06T21:14:19.087Z,98.33
2017-11-06T21:16:47.562Z,98.39
2017-11-06T21:19:16.091Z,98.12
2017-11-06T21:21:43.684Z,98.04
2017-11-06T21:24:11.239Z,98.42
2017-11-06T21:26:38.876Z,98.17
2017-11-06T21:29:06.459Z,98.20
2017-11-06T21:31:34.004Z,97.39
2017-11-06T21:34:01.576Z,97.57
2017-11-06T21:36:29.376Z,97.36
2017-11-06T21:38:57.019Z,97.25
2017-11-06T21:41:24.565Z,96.94
2017-11-06T21:43:55.257Z,97.29
2017-11-06T21:46:23.449Z,96.93
2017-11-06T21:48:52.936Z,96.78
2017-11-06T21:51:20.487Z,96.72
2017-11-06T21:53:48.866Z,96.36
2017-11-06T21:56:17.284Z,96.61
2017-11-06T21:58:45.600Z,96.13
2017-11-06T22:01:14.915Z,96.42
2017-11-06T22:03:43.675Z,96.95
2017-11-06T22:06:11.466Z,96.73
2017-11-06T22:08:40.281Z,96.21
2017-11-06T22:11:07.823Z,96.89
2017-11-06T22:13:37.156Z,97.14
2017-11-06T22:16:04.767Z,96.94
2017-11-06T22:18:33.716Z,96.84
2017-11-06T22:21:01.330Z,97.58
2017-11-06T22:23:28.875Z,97.65
2017-11-06T22:25:56.420Z,97.00
2017-11-06T22:28:24.004Z,96.93
2017-11-06T22:30:51.533Z,98.23
2017-11-06T22:33:19.105Z,97.88
2017-11-06T22:35:47.101Z,97.72
2017-11-06T22:38:14.635Z,97.51
2017-11-06T22:40:42.166Z,97.66
2017-11-06T22:43:09.705Z,97.65
2017-11-06T22:45:37.292Z,97.07
2017-11-06T22:48:04.833Z,97.54
2017-11-06T22:50:32.421Z,97.61
2017-11-06T22:53:00.269Z,97.92
2017-11-06T22:55:27.912Z,97.64
2017-11-06T22:57:55.441Z,97.43
2017-11-06T23:00:22.978Z,97.36
2017-11-06T23:02:50.513Z,98.24
2017-11-06T23:05:18.045Z,97.88
2017-11-06T23:07:45.576Z,97.53
2017-11-06T23:10:13.131Z,97.42
2017-11-06T23:12:40.702Z,97.02
2017-11-06T23:15:08.242Z,95.28
2017-11-06T23:17:35.813Z,96.49
2017-11-06T23:20:03.344Z,97.80
2017-11-06T23:22:31.687Z,97.39
2017-11-06T23:24:59.230Z,97.70
2017-11-06T23:27:27.688Z,97.03
2017-11-06T23:29:55.276Z,97.14
2017-11-06T23:32:22.799Z,97.75
2017-11-06T23:34:50.343Z,98.37
2017-11-06T23:37:18.782Z,98.24
2017-11-06T23:39:46.396Z,97.31
2017-11-06T23:42:13.939Z,95.76
2017-11-06T23:44:41.492Z,96.56
2017-11-06T23:47:09.028Z,97.60
2017-11-06T23:49:36.565Z,97.62
2017-11-06T23:52:04.139Z,96.05
2017-11-06T23:54:31.881Z,97.99
2017-11-06T23:56:59.440Z,98.21
2017-11-06T23:59:27.122Z,98.01
